createdAt,value
2018-04-13T00:02:52.376Z,3.83
2018-04-13T00:08:43.169Z,2.69
2018-04-13T00:14:34.003Z,2.5
2018-04-13T00:20:24.767Z,2.47
2018-04-13T00:26:15.591Z,2.46
2018-04-13T00:32:06.360Z,2.65
2018-04-13T00:37:57.161Z,2.95
2018-04-13T00:43:47.964Z,2.9
2018-04-13T00:49:38.730Z,1.78
2018-04-13T00:55:29.489Z,1.98
2018-04-13T01:01:20.289Z,1.76
2018-04-13T01:07:11.080Z,2.04
2018-04-13T01:13:01.883Z,2.62
2018-04-13T01:18:52.685Z,2.36
2018-04-13T01:24:43.435Z,2.05
2018-04-13T01:30:34.233Z,1.86
2018-04-13T01:36:25.057Z,1.86
2018-04-13T01:42:15.816Z,1.49
2018-04-13T01:48:06.621Z,1.27
2018-04-13T01:53:57.428Z,1.13
2018-04-13T01:59:48.180Z,1.3
2018-04-13T02:05:38.959Z,1.55
2018-04-13T02:11:29.771Z,1.21
2018-04-13T02:17:20.530Z,1.21
2018-04-13T02:23:11.384Z,1.08
2018-04-13T02:29:02.097Z,1.08
2018-04-13T02:34:52.873Z,1.1
2018-04-13T02:40:43.653Z,0.89
2018-04-13T02:46:34.450Z,1.14
2018-04-13T02:52:25.191Z,1.15
2018-04-13T02:58:16.009Z,1.08
2018-04-13T03:04:06.867Z,1
2018-04-13T03:09:57.592Z,0.96
2018-04-13T03:15:48.368Z,1.15
2018-04-13T03:21:39.140Z,1.13
2018-04-13T03:27:29.946Z,1.22
2018-04-13T03:33:20.676Z,1.21
2018-04-13T03:39:11.435Z,1.23
2018-04-13T03:45:02.221Z,1.21
2018-04-13T03:50:52.974Z,2.05
2018-04-13T03:56:43.747Z,2.32
2018-04-13T04:02:34.576Z,2.11
2018-04-13T04:08:25.326Z,2.15
2018-04-13T04:14:16.138Z,1.51
2018-04-13T04:20:06.867Z,1.66
2018-04-13T04:25:57.621Z,1.78
2018-04-13T04:31:48.400Z,1.88
2018-04-13T04:37:39.207Z,1.43
2018-04-13T04:43:29.963Z,1.54
2018-04-13T04:49:20.742Z,1.98
2018-04-13T04:55:11.504Z,4
2018-04-13T05:01:02.254Z,5.9
2018-04-13T05:06:53.026Z,5.01
2018-04-13T05:12:43.803Z,4.45
2018-04-13T05:18:34.579Z,4.77
2018-04-13T05:24:25.320Z,4.18
2018-04-13T05:30:16.178Z,3.69
2018-04-13T05:36:06.905Z,3
2018-04-13T05:41:57.649Z,3.04
2018-04-13T05:47:48.431Z,2.96
2018-04-13T05:53:39.295Z,4.35
2018-04-13T05:59:29.985Z,5.8
2018-04-13T06:05:20.950Z,7.61
2018-04-13T06:11:11.572Z,7.22
2018-04-13T06:17:02.337Z,9.18
2018-04-13T06:22:53.205Z,9.6
2018-04-13T06:28:43.857Z,9.73
2018-04-13T06:34:34.627Z,9.32
2018-04-13T06:40:25.455Z,12.09
2018-04-13T06:46:16.183Z,13.54
2018-04-13T06:52:06.994Z,10.32
2018-04-13T06:57:57.802Z,12.75
2018-04-13T07:03:48.602Z,11.71
2018-04-13T07:09:39.408Z,15.08
2018-04-13T07:15:30.163Z,12.85
2018-04-13T07:21:20.996Z,8.3
2018-04-13T07:27:11.718Z,16.99
2018-04-13T07:33:02.496Z,15.04
2018-04-13T07:38:53.300Z,6.29
2018-04-13T07:44:44.107Z,5.51
2018-04-13T07:50:34.892Z,5.19
2018-04-13T07:56:25.691Z,8.02
2018-04-13T08:02:16.491Z,5.6
2018-04-13T08:08:07.296Z,8.35
2018-04-13T08:13:58.141Z,6.55
2018-04-13T08:19:48.922Z,4.82
2018-04-13T08:25:39.733Z,5.56
2018-04-13T08:31:30.513Z,3.97
2018-04-13T08:37:21.328Z,4.4
2018-04-13T08:43:12.212Z,3.13
2018-04-13T08:49:03.032Z,2.78
2018-04-13T08:54:53.795Z,2.15
2018-04-13T09:00:44.653Z,2.31
2018-04-13T09:06:35.532Z,1.91
2018-04-13T09:12:26.361Z,2.1
2018-04-13T09:18:17.189Z,1.67
2018-04-13T09:24:08.036Z,1.75
2018-04-13T09:29:58.876Z,1.19
2018-04-13T09:35:49.759Z,0.85
2018-04-13T09:41:40.569Z,1.24
2018-04-13T09:47:31.406Z,1.28
2018-04-13T09:53:22.252Z,1.23
2018-04-13T09:59:13.141Z,1
2018-04-13T10:05:03.980Z,0.89
2018-04-13T10:10:54.856Z,1.21
2018-04-13T10:16:45.737Z,1.4
2018-04-13T10:22:36.609Z,1.28
2018-04-13T10:28:27.518Z,1.16
2018-04-13T10:34:18.388Z,1.54
2018-04-13T10:40:09.316Z,1.18
2018-04-13T10:46:00.245Z,1.23
2018-04-13T10:51:51.087Z,1.26
2018-04-13T10:57:41.959Z,1.52
2018-04-13T11:03:32.865Z,1.3
2018-04-13T11:09:23.753Z,1.72
2018-04-13T11:15:14.660Z,1.39
2018-04-13T11:21:05.600Z,1.43
2018-04-13T11:26:56.518Z,1.3
2018-04-13T11:32:47.436Z,1.43
2018-04-13T11:38:38.383Z,1.56
2018-04-13T11:44:29.114Z,1.35
2018-04-13T11:50:19.953Z,1.68
2018-04-13T11:56:10.898Z,1.3
2018-04-13T12:02:01.846Z,1.37
2018-04-13T12:07:52.625Z,1.82
2018-04-13T12:13:43.562Z,1.74
2018-04-13T12:25:25.198Z,1.52
2018-04-13T12:31:16.092Z,1.51
2018-04-13T12:37:06.880Z,1.6
2018-04-13T12:42:57.709Z,1.36
2018-04-13T12:48:48.559Z,1.39
2018-04-13T12:54:39.689Z,1.74
2018-04-13T13:00:30.316Z,1.39
2018-04-13T13:06:21.271Z,1.12
2018-04-13T13:12:12.151Z,1.23
2018-04-13T13:18:03.049Z,1.23
2018-04-13T13:23:53.934Z,1.42
2018-04-13T13:29:44.824Z,1.36
2018-04-13T13:35:35.721Z,1.43
2018-04-13T13:41:26.631Z,1.61
2018-04-13T13:47:17.473Z,1.72
2018-04-13T13:53:08.346Z,1.41
2018-04-13T13:58:59.274Z,1.54
2018-04-13T14:04:50.109Z,1.38
2018-04-13T14:10:41.038Z,1.73
2018-04-13T14:16:31.930Z,1.32
2018-04-13T14:22:22.849Z,1.89
2018-04-13T14:28:13.730Z,1.36
2018-04-13T14:34:04.628Z,2.06
2018-04-13T14:39:55.525Z,1.46
2018-04-13T14:45:46.325Z,1.3
2018-04-13T14:51:37.227Z,1.56
2018-04-13T14:57:28.094Z,1.35
2018-04-13T15:03:18.981Z,1.81
2018-04-13T15:09:09.818Z,1.81
2018-04-13T15:15:00.680Z,1.75
2018-04-13T15:20:51.590Z,2.04
2018-04-13T15:26:42.489Z,1.58
2018-04-13T15:32:33.373Z,2.69
2018-04-13T15:38:24.308Z,1.54
2018-04-13T15:44:15.134Z,1.56
2018-04-13T15:50:06.079Z,2.33
2018-04-13T15:55:56.941Z,1.6
2018-04-13T16:01:47.775Z,1.75
2018-04-13T16:07:38.626Z,1.76
2018-04-13T16:13:29.520Z,1.82
2018-04-13T16:19:20.461Z,1.81
2018-04-13T16:25:11.255Z,1.85
2018-04-13T16:31:02.063Z,1.4
2018-04-13T16:36:52.917Z,2.16
2018-04-13T16:42:43.799Z,1.95
2018-04-13T16:48:34.670Z,2.21
2018-04-13T16:54:25.527Z,1.74
2018-04-13T17:00:16.347Z,2.44
2018-04-13T17:06:07.183Z,2.46
2018-04-13T17:11:58.041Z,2.28
2018-04-13T17:17:48.979Z,3.15
2018-04-13T17:23:39.810Z,3.03
2018-04-13T17:29:30.642Z,3.37
2018-04-13T17:35:21.429Z,2.38
2018-04-13T17:41:12.300Z,2.9
2018-04-13T17:47:03.185Z,3.85
2018-04-13T17:52:53.976Z,3.72
2018-04-13T17:58:44.872Z,3.58
2018-04-13T18:04:35.683Z,3.6
2018-04-13T18:10:26.547Z,6.47
2018-04-13T18:16:17.347Z,3.99
2018-04-13T18:22:08.222Z,3.76
2018-04-13T18:27:59.082Z,4.26
2018-04-13T18:33:50.006Z,3.39
2018-04-13T18:39:40.726Z,2.53
2018-04-13T18:45:31.537Z,3.39
2018-04-13T18:51:22.398Z,4.55
2018-04-13T18:57:13.189Z,5.12
2018-04-13T19:03:04.027Z,5.99
2018-04-13T19:08:54.819Z,3.39
2018-04-13T19:14:45.665Z,3.48
2018-04-13T19:20:36.489Z,2.95
2018-04-13T19:26:27.325Z,2.85
2018-04-13T19:32:18.123Z,3.94
2018-04-13T19:38:08.971Z,7.92
2018-04-13T19:43:59.754Z,4.19
2018-04-13T19:49:50.584Z,5.15
2018-04-13T19:55:41.404Z,3.81
2018-04-13T20:01:32.243Z,4.71
2018-04-13T20:07:23.068Z,3.54
2018-04-13T20:13:13.858Z,3.01
2018-04-13T20:19:04.689Z,2.3
2018-04-13T20:24:55.441Z,3.27
2018-04-13T20:30:46.271Z,9.52
2018-04-13T20:36:37.099Z,4.21
2018-04-13T20:42:27.885Z,7.05
2018-04-13T20:48:18.738Z,9.29
2018-04-13T20:54:09.519Z,4.36
2018-04-13T21:00:00.367Z,4.85
2018-04-13T21:05:51.171Z,5.15
2018-04-13T21:11:41.952Z,3.6
2018-04-13T21:17:32.735Z,3.43
2018-04-13T21:23:23.589Z,3.48
2018-04-13T21:29:14.388Z,4.15
2018-04-13T21:35:05.215Z,3.5
2018-04-13T21:40:55.967Z,3.85
2018-04-13T21:46:46.946Z,4.43
2018-04-13T21:52:37.675Z,6.4
2018-04-13T21:58:28.432Z,5.99
2018-04-13T22:04:19.276Z,5.23
2018-04-13T22:10:10.046Z,5.84
2018-04-13T22:16:00.879Z,6.39
2018-04-13T22:21:51.661Z,7.24
2018-04-13T22:27:42.420Z,6.48
2018-04-13T22:33:33.253Z,7.99
2018-04-13T22:39:24.044Z,7.49
2018-04-13T22:45:14.916Z,7.32
2018-04-13T22:51:05.629Z,7.04
2018-04-13T22:56:56.471Z,6.27
2018-04-13T23:02:47.293Z,5.59
2018-04-13T23:08:38.073Z,4.87
2018-04-13T23:14:28.852Z,4.63
2018-04-13T23:20:19.613Z,5.45
2018-04-13T23:26:10.447Z,5.79
2018-04-13T23:32:01.205Z,3.7
2018-04-13T23:37:52.031Z,4.14
2018-04-13T23:43:42.887Z,3.8
2018-04-13T23:49:33.597Z,3.4
2018-04-13T23:55:24.427Z,3.76
